createdAt,value
2022-11-29T00:00:13.711Z,7.23
2022-11-29T00:01:13.676Z,7.26
2022-11-29T00:02:13.796Z,7.24
2022-11-29T00:03:13.757Z,7.23
2022-11-29T00:04:13.678Z,7.24
2022-11-29T00:05:13.675Z,7.24
2022-11-29T00:06:13.641Z,7.23
2022-11-29T00:07:13.631Z,7.23
2022-11-29T00:08:13.614Z,7.23
2022-11-29T00:09:13.585Z,7.23
2022-11-29T00:10:13.607Z,7.22
2022-11-29T00:11:13.567Z,7.23
2022-11-29T00:12:13.585Z,7.22
2022-11-29T00:13:13.551Z,7.22
2022-11-29T00:14:13.563Z,7.22
2022-11-29T00:15:13.516Z,7.22
2022-11-29T00:16:13.579Z,7.20
2022-11-29T00:17:13.516Z,7.22
2022-11-29T00:18:13.522Z,7.20
2022-11-29T00:19:13.700Z,7.22
2022-11-29T00:20:13.510Z,7.23
2022-11-29T00:21:13.473Z,7.23
2022-11-29T00:22:13.457Z,7.22
2022-11-29T00:23:13.452Z,7.20
2022-11-29T00:24:13.460Z,7.20
2022-11-29T00:25:13.403Z,7.19
2022-11-29T00:26:13.512Z,7.22
2022-11-29T00:27:13.384Z,7.20
2022-11-29T00:28:13.411Z,7.20
2022-11-29T00:29:13.369Z,7.22
2022-11-29T00:30:13.425Z,7.22
2022-11-29T00:31:13.362Z,7.23
2022-11-29T00:32:13.351Z,7.22
2022-11-29T00:33:13.326Z,7.23
2022-11-29T00:34:13.359Z,7.22
2022-11-29T00:35:13.317Z,7.20
2022-11-29T00:36:13.309Z,7.20
2022-11-29T00:37:13.284Z,7.19
2022-11-29T00:38:13.297Z,7.19
2022-11-29T00:39:13.272Z,7.19
2022-11-29T00:40:13.276Z,7.19
2022-11-29T00:41:13.256Z,7.20
2022-11-29T00:42:13.253Z,7.20
2022-11-29T00:43:13.217Z,7.17
2022-11-29T00:44:19.654Z,7.16
2022-11-29T00:45:14.208Z,7.17
2022-11-29T00:46:13.239Z,7.17
2022-11-29T00:47:13.185Z,7.17
2022-11-29T00:48:13.178Z,7.17
2022-11-29T00:49:13.145Z,7.19
2022-11-29T00:50:13.155Z,7.20
2022-11-29T00:51:13.110Z,7.20
2022-11-29T00:52:13.133Z,7.22
2022-11-29T00:53:14.044Z,7.23
2022-11-29T00:54:13.103Z,7.23
2022-11-29T00:55:13.069Z,7.23
2022-11-29T00:56:13.092Z,7.26
2022-11-29T00:57:13.050Z,7.26
2022-11-29T00:58:13.058Z,7.27
2022-11-29T00:59:13.019Z,7.29
2022-11-29T01:00:13.036Z,7.26
2022-11-29T01:01:13.070Z,7.29
2022-11-29T01:02:13.046Z,7.29
2022-11-29T01:03:12.966Z,7.29
2022-11-29T01:04:12.986Z,7.29
2022-11-29T01:05:12.951Z,7.29
2022-11-29T01:06:12.979Z,7.29
2022-11-29T01:07:12.999Z,7.31
2022-11-29T01:08:12.951Z,7.29
2022-11-29T01:09:12.909Z,7.27
2022-11-29T01:10:12.922Z,7.27
2022-11-29T01:11:12.901Z,7.24
2022-11-29T01:12:12.913Z,7.24
2022-11-29T01:13:12.861Z,7.26
2022-11-29T01:14:12.900Z,7.27
2022-11-29T01:15:12.875Z,7.26
2022-11-29T01:16:13.986Z,7.24
2022-11-29T01:17:12.823Z,7.24
2022-11-29T01:18:12.827Z,7.24
2022-11-29T01:19:12.813Z,7.23
2022-11-29T01:20:12.829Z,7.23
2022-11-29T01:21:12.769Z,7.23
2022-11-29T01:22:12.785Z,7.23
2022-11-29T01:23:12.754Z,7.23
2022-11-29T01:24:12.776Z,7.24
2022-11-29T01:25:12.745Z,7.24
2022-11-29T01:26:12.746Z,7.23
2022-11-29T01:27:12.730Z,7.24
2022-11-29T01:28:12.714Z,7.24
2022-11-29T01:29:12.693Z,7.24
2022-11-29T01:30:12.704Z,7.23
2022-11-29T01:31:12.718Z,7.24
2022-11-29T01:32:12.732Z,7.23
2022-11-29T01:33:12.639Z,7.24
2022-11-29T01:34:13.642Z,7.23
2022-11-29T01:35:12.609Z,7.22
2022-11-29T01:36:12.629Z,7.22
2022-11-29T01:37:12.589Z,7.22
2022-11-29T01:38:12.649Z,7.19
2022-11-29T01:39:12.568Z,7.20
2022-11-29T01:40:12.584Z,7.22
2022-11-29T01:41:12.544Z,7.17
2022-11-29T01:42:12.535Z,7.20
2022-11-29T01:43:12.554Z,7.19
2022-11-29T01:44:12.521Z,7.19
2022-11-29T01:45:12.531Z,7.19
2022-11-29T01:46:12.542Z,7.19
2022-11-29T01:47:12.512Z,7.19
2022-11-29T01:48:13.411Z,7.19
2022-11-29T01:49:12.502Z,7.20
2022-11-29T01:50:12.442Z,7.20
2022-11-29T01:51:12.468Z,7.20
2022-11-29T01:52:12.436Z,7.20
2022-11-29T01:53:12.432Z,7.20
2022-11-29T01:54:12.549Z,7.20
2022-11-29T01:55:13.370Z,7.19
2022-11-29T01:56:13.353Z,7.23
2022-11-29T01:57:12.392Z,7.22
2022-11-29T01:58:12.354Z,7.20
2022-11-29T01:59:12.359Z,7.20
2022-11-29T02:00:12.354Z,7.22
2022-11-29T02:01:12.374Z,7.22
2022-11-29T02:02:12.375Z,7.24
2022-11-29T02:03:12.335Z,7.22
2022-11-29T02:04:12.287Z,7.23
2022-11-29T02:05:12.311Z,7.24
2022-11-29T02:06:12.276Z,7.24
2022-11-29T02:07:12.273Z,7.26
2022-11-29T02:08:12.246Z,7.24
2022-11-29T02:09:12.264Z,7.24
2022-11-29T02:10:12.236Z,7.26
2022-11-29T02:11:12.286Z,7.24
2022-11-29T02:12:13.144Z,7.26
2022-11-29T02:13:12.214Z,7.27
2022-11-29T02:14:12.189Z,7.27
2022-11-29T02:15:12.184Z,7.27
2022-11-29T02:16:12.191Z,7.26
2022-11-29T02:17:12.164Z,7.27
2022-11-29T02:18:13.090Z,7.26
2022-11-29T02:19:12.135Z,7.26
2022-11-29T02:20:12.105Z,7.26
2022-11-29T02:21:12.131Z,7.26
2022-11-29T02:22:12.091Z,7.27
2022-11-29T02:23:12.116Z,7.26
2022-11-29T02:24:12.062Z,7.26
2022-11-29T02:25:12.075Z,7.27
2022-11-29T02:26:12.055Z,7.27
2022-11-29T02:27:12.054Z,7.26
2022-11-29T02:28:12.016Z,7.24
2022-11-29T02:29:12.038Z,7.23
2022-11-29T02:30:12.022Z,7.22
2022-11-29T02:31:12.045Z,7.20
2022-11-29T02:32:11.991Z,7.22
2022-11-29T02:33:11.982Z,7.22
2022-11-29T02:34:11.954Z,7.23
2022-11-29T02:35:11.969Z,7.22
2022-11-29T02:36:11.933Z,7.23
2022-11-29T02:37:11.968Z,7.22
2022-11-29T02:38:11.913Z,7.22
2022-11-29T02:39:11.935Z,7.22
2022-11-29T02:40:11.968Z,7.22
2022-11-29T02:41:11.925Z,7.22
2022-11-29T02:42:11.877Z,7.24
2022-11-29T02:43:11.881Z,7.26
2022-11-29T02:44:11.841Z,7.24
2022-11-29T02:45:11.871Z,7.26
2022-11-29T02:46:11.969Z,7.27
2022-11-29T02:47:11.834Z,7.26
2022-11-29T02:48:11.808Z,7.26
2022-11-29T02:49:11.809Z,7.27
2022-11-29T02:50:11.790Z,7.26
2022-11-29T02:51:11.786Z,7.27
2022-11-29T02:52:12.717Z,7.29
2022-11-29T02:53:11.768Z,7.29
2022-11-29T02:54:11.814Z,7.29
2022-11-29T02:55:11.790Z,7.26
2022-11-29T02:56:11.719Z,7.29
2022-11-29T02:57:11.725Z,7.27
2022-11-29T02:58:11.697Z,7.26
2022-11-29T02:59:11.762Z,7.26
2022-11-29T03:00:11.695Z,7.26
2022-11-29T03:01:11.727Z,7.26
2022-11-29T03:02:11.799Z,7.27
2022-11-29T03:03:11.644Z,7.26
2022-11-29T03:04:11.612Z,7.26
2022-11-29T03:05:11.643Z,7.27
2022-11-29T03:06:11.612Z,7.26
2022-11-29T03:07:11.626Z,7.27
2022-11-29T03:08:11.594Z,7.29
2022-11-29T03:09:11.583Z,7.26
2022-11-29T03:10:11.554Z,7.26
2022-11-29T03:11:11.561Z,7.26
2022-11-29T03:12:11.534Z,7.27
2022-11-29T03:13:11.547Z,7.26
2022-11-29T03:14:11.516Z,7.26
2022-11-29T03:15:11.528Z,7.24
2022-11-29T03:16:11.554Z,7.24
2022-11-29T03:17:11.485Z,7.26
2022-11-29T03:18:11.460Z,7.27
2022-11-29T03:19:11.488Z,7.26
2022-11-29T03:20:11.438Z,7.24
2022-11-29T03:21:11.448Z,7.26
2022-11-29T03:22:11.408Z,7.27
2022-11-29T03:23:11.433Z,7.27
2022-11-29T03:24:11.390Z,7.29
2022-11-29T03:25:12.350Z,7.27
2022-11-29T03:26:11.373Z,7.29
2022-11-29T03:27:11.380Z,7.31
2022-11-29T03:28:11.338Z,7.32
2022-11-29T03:29:11.354Z,7.31
2022-11-29T03:30:11.326Z,7.31
2022-11-29T03:31:12.344Z,7.31
2022-11-29T03:32:11.291Z,7.34
2022-11-29T03:33:11.319Z,7.32
2022-11-29T03:34:11.272Z,7.34
2022-11-29T03:35:11.299Z,7.32
2022-11-29T03:36:11.256Z,7.35
2022-11-29T03:37:11.260Z,7.32
2022-11-29T03:38:11.232Z,7.32
2022-11-29T03:39:11.240Z,7.31
2022-11-29T03:40:11.222Z,7.29
2022-11-29T03:41:11.233Z,7.32
2022-11-29T03:42:11.192Z,7.31
2022-11-29T03:43:11.212Z,7.31
2022-11-29T03:44:11.183Z,7.27
2022-11-29T03:45:12.135Z,7.29
2022-11-29T03:46:11.228Z,7.29
2022-11-29T03:47:11.164Z,7.29
2022-11-29T03:48:11.136Z,7.27
2022-11-29T03:49:11.133Z,7.29
2022-11-29T03:50:11.103Z,7.31
2022-11-29T03:51:11.123Z,7.29
2022-11-29T03:52:11.088Z,7.29
2022-11-29T03:53:11.099Z,7.29
2022-11-29T03:54:11.060Z,7.26
2022-11-29T03:55:11.088Z,7.29
2022-11-29T03:56:11.036Z,7.29
2022-11-29T03:57:11.049Z,7.29
2022-11-29T03:58:11.956Z,7.29
2022-11-29T03:59:11.068Z,7.32
2022-11-29T04:00:11.945Z,7.34
2022-11-29T04:01:11.156Z,7.32
2022-11-29T04:02:10.966Z,7.34
2022-11-29T04:03:10.979Z,7.32
2022-11-29T04:04:10.940Z,7.29
2022-11-29T04:05:10.960Z,7.27
2022-11-29T04:06:10.927Z,7.27
2022-11-29T04:07:10.952Z,7.24
2022-11-29T04:08:10.890Z,7.24
2022-11-29T04:09:10.918Z,7.24
2022-11-29T04:10:10.869Z,7.23
2022-11-29T04:11:10.908Z,7.23
2022-11-29T04:12:10.863Z,7.24
2022-11-29T04:13:10.859Z,7.24
2022-11-29T04:14:10.841Z,7.26
2022-11-29T04:15:15.318Z,7.24
2022-11-29T04:16:10.849Z,7.24
2022-11-29T04:17:10.826Z,7.24
2022-11-29T04:18:10.781Z,7.26
2022-11-29T04:19:10.810Z,7.27
2022-11-29T04:20:10.763Z,7.26
2022-11-29T04:21:10.774Z,7.26
2022-11-29T04:22:10.764Z,7.27
2022-11-29T04:23:10.761Z,7.27
2022-11-29T04:24:10.706Z,7.26
2022-11-29T04:25:10.729Z,7.24
2022-11-29T04:26:10.692Z,7.24
2022-11-29T04:27:10.720Z,7.23
2022-11-29T04:28:10.691Z,7.24
2022-11-29T04:29:10.695Z,7.24
2022-11-29T04:30:10.644Z,7.24
2022-11-29T04:31:10.716Z,7.26
2022-11-29T04:32:10.619Z,7.26
2022-11-29T04:33:10.665Z,7.27
2022-11-29T04:34:10.608Z,7.29
2022-11-29T04:35:10.612Z,7.29
2022-11-29T04:36:10.578Z,7.31
2022-11-29T04:37:10.606Z,7.32
2022-11-29T04:38:10.557Z,7.34
2022-11-29T04:39:10.569Z,7.34
2022-11-29T04:40:10.527Z,7.34
2022-11-29T04:41:10.547Z,7.34
2022-11-29T04:42:10.536Z,7.32
2022-11-29T04:43:10.528Z,7.31
2022-11-29T04:44:10.505Z,7.29
2022-11-29T04:45:10.500Z,7.29
2022-11-29T04:46:10.500Z,7.29
2022-11-29T04:47:10.494Z,7.29
2022-11-29T04:48:10.452Z,7.27
2022-11-29T04:49:10.469Z,7.26
2022-11-29T04:50:10.419Z,7.22
2022-11-29T04:51:10.452Z,7.20
2022-11-29T04:52:10.404Z,7.20
2022-11-29T04:53:10.423Z,7.19
2022-11-29T04:54:10.391Z,7.19
2022-11-29T04:55:10.395Z,7.22
2022-11-29T04:56:10.344Z,7.22
2022-11-29T04:57:10.367Z,7.22
2022-11-29T04:58:10.335Z,7.23
2022-11-29T04:59:10.367Z,7.24
2022-11-29T05:00:10.325Z,7.24
2022-11-29T05:01:10.400Z,7.26
2022-11-29T05:02:10.319Z,7.26
2022-11-29T05:03:10.316Z,7.26
2022-11-29T05:04:10.265Z,7.26
2022-11-29T05:05:10.278Z,7.24
2022-11-29T05:06:10.236Z,7.22
2022-11-29T05:07:10.277Z,7.22
2022-11-29T05:08:10.219Z,7.20
2022-11-29T05:09:10.259Z,7.20
2022-11-29T05:10:10.212Z,7.19
2022-11-29T05:11:10.212Z,7.19
2022-11-29T05:12:10.195Z,7.20
2022-11-29T05:13:10.187Z,7.19
2022-11-29T05:14:11.116Z,7.17
2022-11-29T05:15:10.157Z,7.17
2022-11-29T05:16:10.152Z,7.16
2022-11-29T05:17:10.183Z,7.17
2022-11-29T05:18:10.122Z,7.15
2022-11-29T05:19:10.129Z,7.12
2022-11-29T05:20:10.085Z,7.09
2022-11-29T05:21:10.100Z,7.05
2022-11-29T05:22:10.061Z,7.01
2022-11-29T05:23:10.081Z,7.01
2022-11-29T05:24:10.044Z,7.02
2022-11-29T05:25:10.068Z,7.04
2022-11-29T05:26:10.022Z,7.05
2022-11-29T05:27:10.037Z,7.08
2022-11-29T05:28:10.553Z,7.12
2022-11-29T05:29:10.015Z,7.12
2022-11-29T05:30:09.983Z,7.15
2022-11-29T05:31:10.020Z,7.16
2022-11-29T05:32:09.956Z,7.16
2022-11-29T05:33:09.983Z,7.16
2022-11-29T05:34:09.933Z,7.16
2022-11-29T05:35:09.941Z,7.19
2022-11-29T05:36:09.904Z,7.17
2022-11-29T05:37:09.915Z,7.17
2022-11-29T05:38:09.894Z,7.16
2022-11-29T05:39:09.901Z,7.17
2022-11-29T05:40:09.854Z,7.16
2022-11-29T05:41:09.874Z,7.20
2022-11-29T05:42:09.845Z,7.22
2022-11-29T05:43:09.860Z,7.23
2022-11-29T05:44:09.816Z,7.24
2022-11-29T05:45:09.855Z,7.24
2022-11-29T05:46:09.838Z,7.23
2022-11-29T05:47:09.804Z,7.22
2022-11-29T05:48:09.778Z,7.20
2022-11-29T05:49:09.782Z,7.20
2022-11-29T05:50:09.740Z,7.20
2022-11-29T05:51:09.777Z,7.20
2022-11-29T05:52:09.750Z,7.22
2022-11-29T05:53:09.768Z,7.22
2022-11-29T05:54:09.699Z,7.22
2022-11-29T05:55:09.747Z,7.20
2022-11-29T05:56:09.677Z,7.23
2022-11-29T05:57:09.690Z,7.23
2022-11-29T05:58:09.737Z,7.23
2022-11-29T05:59:09.667Z,7.24
2022-11-29T06:00:09.682Z,7.24
2022-11-29T06:01:09.633Z,7.24
2022-11-29T06:02:09.689Z,7.27
2022-11-29T06:03:09.658Z,7.26
2022-11-29T06:04:14.597Z,7.26
2022-11-29T06:05:10.603Z,7.26
2022-11-29T06:06:09.598Z,7.31
2022-11-29T06:07:09.558Z,7.29
2022-11-29T06:08:09.576Z,7.31
2022-11-29T06:09:09.544Z,7.31
2022-11-29T06:10:09.564Z,7.29
2022-11-29T06:11:09.505Z,7.31
2022-11-29T06:12:09.536Z,7.31
2022-11-29T06:13:09.493Z,7.32
2022-11-29T06:14:09.506Z,7.34
2022-11-29T06:15:09.487Z,7.34
2022-11-29T06:16:09.515Z,7.35
2022-11-29T06:17:09.442Z,7.34
2022-11-29T06:18:09.467Z,7.35
2022-11-29T06:19:09.426Z,7.35
2022-11-29T06:20:09.452Z,7.35
2022-11-29T06:21:09.408Z,7.35
2022-11-29T06:22:09.586Z,7.37
2022-11-29T06:23:09.387Z,7.35
2022-11-29T06:24:09.413Z,7.34
2022-11-29T06:25:09.583Z,7.37
2022-11-29T06:26:09.373Z,7.35
2022-11-29T06:27:09.332Z,7.37
2022-11-29T06:28:09.344Z,7.37
2022-11-29T06:29:09.335Z,7.37
2022-11-29T06:30:09.323Z,7.35
2022-11-29T06:31:09.332Z,7.37
2022-11-29T06:32:09.300Z,7.37
2022-11-29T06:33:09.298Z,7.35
2022-11-29T06:34:09.279Z,7.35
2022-11-29T06:35:09.249Z,7.35
2022-11-29T06:36:09.291Z,7.35
2022-11-29T06:37:09.222Z,7.34
2022-11-29T06:38:09.246Z,7.35
2022-11-29T06:39:09.206Z,7.35
2022-11-29T06:40:09.206Z,7.35
2022-11-29T06:41:09.189Z,7.37
2022-11-29T06:42:09.211Z,7.35
2022-11-29T06:43:09.188Z,7.34
2022-11-29T06:44:09.177Z,7.34
2022-11-29T06:45:09.148Z,7.34
2022-11-29T06:46:09.224Z,7.32
2022-11-29T06:47:09.109Z,7.34
2022-11-29T06:48:09.137Z,7.32
2022-11-29T06:49:09.093Z,7.34
2022-11-29T06:50:09.096Z,7.37
2022-11-29T06:51:09.064Z,7.34
2022-11-29T06:52:09.090Z,7.34
2022-11-29T06:53:09.034Z,7.35
2022-11-29T06:54:09.055Z,7.35
2022-11-29T06:55:09.032Z,7.37
2022-11-29T06:56:09.040Z,7.38
2022-11-29T06:57:08.995Z,7.38
2022-11-29T06:58:09.007Z,7.38
2022-11-29T06:59:08.976Z,7.40
2022-11-29T07:00:09.016Z,7.40
2022-11-29T07:01:08.966Z,7.41
2022-11-29T07:02:09.000Z,7.40
2022-11-29T07:03:08.939Z,7.38
2022-11-29T07:04:08.979Z,7.37
2022-11-29T07:05:08.912Z,7.37
2022-11-29T07:06:08.943Z,7.35
2022-11-29T07:07:08.903Z,7.35
2022-11-29T07:08:08.910Z,7.35
2022-11-29T07:09:08.866Z,7.34
2022-11-29T07:10:14.661Z,7.34
2022-11-29T07:11:09.835Z,7.32
2022-11-29T07:12:08.868Z,7.32
2022-11-29T07:13:09.783Z,7.32
2022-11-29T07:14:08.826Z,7.31
2022-11-29T07:15:08.812Z,7.29
2022-11-29T07:16:08.861Z,7.29
2022-11-29T07:17:08.773Z,7.29
2022-11-29T07:18:08.782Z,7.29
2022-11-29T07:19:08.749Z,7.27
2022-11-29T07:20:08.788Z,7.27
2022-11-29T07:21:08.734Z,7.26
2022-11-29T07:22:08.746Z,7.27
2022-11-29T07:23:08.708Z,7.27
2022-11-29T07:24:08.733Z,7.29
2022-11-29T07:25:08.705Z,7.29
2022-11-29T07:26:08.703Z,7.31
2022-11-29T07:27:08.672Z,7.31
2022-11-29T07:28:08.682Z,7.32
2022-11-29T07:29:08.644Z,7.35
2022-11-29T07:30:08.674Z,7.35
2022-11-29T07:31:08.679Z,7.37
2022-11-29T07:32:08.629Z,7.38
2022-11-29T07:33:08.598Z,7.37
2022-11-29T07:34:08.602Z,7.37
2022-11-29T07:35:08.616Z,7.37
2022-11-29T07:36:08.577Z,7.38
2022-11-29T07:37:08.546Z,7.40
2022-11-29T07:38:08.559Z,7.38
2022-11-29T07:39:08.549Z,7.40
2022-11-29T07:40:08.560Z,7.40
2022-11-29T07:41:08.518Z,7.41
2022-11-29T07:42:08.515Z,7.41
2022-11-29T07:43:08.507Z,7.41
2022-11-29T07:44:08.489Z,7.44
2022-11-29T07:45:08.470Z,7.42
2022-11-29T07:46:08.490Z,7.42
2022-11-29T07:47:08.462Z,7.41
2022-11-29T07:48:08.479Z,7.40
2022-11-29T07:49:08.445Z,7.40
2022-11-29T07:50:08.444Z,7.37
2022-11-29T07:51:08.392Z,7.38
2022-11-29T07:52:08.425Z,7.37
2022-11-29T07:53:08.370Z,7.38
2022-11-29T07:54:08.384Z,7.38
2022-11-29T07:55:08.374Z,7.38
2022-11-29T07:56:08.366Z,7.38
2022-11-29T07:57:08.325Z,7.40
2022-11-29T07:58:08.354Z,7.40
2022-11-29T07:59:08.348Z,7.40
2022-11-29T08:00:08.324Z,7.40
2022-11-29T08:01:08.433Z,7.42
2022-11-29T08:02:11.660Z,7.44
2022-11-29T08:03:08.254Z,7.42
2022-11-29T08:04:08.276Z,7.41
2022-11-29T08:05:08.226Z,7.42
2022-11-29T08:06:08.263Z,7.44
2022-11-29T08:07:08.217Z,7.44
2022-11-29T08:08:08.225Z,7.42
2022-11-29T08:09:08.192Z,7.42
2022-11-29T08:10:08.208Z,7.40
2022-11-29T08:11:08.176Z,7.38
2022-11-29T08:12:08.211Z,7.37
2022-11-29T08:13:08.283Z,7.35
2022-11-29T08:14:08.357Z,7.32
2022-11-29T08:15:09.096Z,7.29
2022-11-29T08:16:08.186Z,7.27
2022-11-29T08:17:08.114Z,7.23
2022-11-29T08:18:08.126Z,7.23
2022-11-29T08:19:08.084Z,7.20
2022-11-29T08:20:08.133Z,7.20
2022-11-29T08:21:08.062Z,7.19
2022-11-29T08:22:08.075Z,7.20
2022-11-29T08:23:08.031Z,7.20
2022-11-29T08:24:08.071Z,7.22
2022-11-29T08:25:08.053Z,7.20
2022-11-29T08:26:08.043Z,7.20
2022-11-29T08:27:08.010Z,7.20
2022-11-29T08:28:08.001Z,7.20
2022-11-29T08:29:07.991Z,7.22
2022-11-29T08:30:08.001Z,7.23
2022-11-29T08:31:07.981Z,7.17
2022-11-29T08:32:07.954Z,7.16
2022-11-29T08:33:07.924Z,7.16
2022-11-29T08:34:07.935Z,7.19
2022-11-29T08:35:07.917Z,7.23
2022-11-29T08:36:07.916Z,7.24
2022-11-29T08:37:07.893Z,7.29
2022-11-29T08:38:07.914Z,7.34
2022-11-29T08:39:09.677Z,7.34
2022-11-29T08:40:07.894Z,7.35
2022-11-29T08:41:07.827Z,7.37
2022-11-29T08:42:07.849Z,7.40
2022-11-29T08:43:07.808Z,7.42
2022-11-29T08:44:07.827Z,7.44
2022-11-29T08:45:07.801Z,7.45
2022-11-29T08:46:07.847Z,7.47
2022-11-29T08:47:07.774Z,7.45
2022-11-29T08:48:07.784Z,7.44
2022-11-29T08:49:07.748Z,7.41
2022-11-29T08:50:07.758Z,7.44
2022-11-29T08:51:07.728Z,7.47
2022-11-29T08:52:07.757Z,7.47
2022-11-29T08:53:07.701Z,7.47
2022-11-29T08:54:07.714Z,7.50
2022-11-29T08:55:07.683Z,7.50
2022-11-29T08:56:31.757Z,7.50
2022-11-29T08:58:08.850Z,7.50
2022-11-29T08:59:07.640Z,7.52
2022-11-29T09:00:07.732Z,7.53
2022-11-29T09:01:07.632Z,7.56
2022-11-29T09:02:07.679Z,7.59
2022-11-29T09:03:07.601Z,7.62
2022-11-29T09:04:07.584Z,7.62
2022-11-29T09:05:07.582Z,7.62
2022-11-29T09:06:11.951Z,7.62
2022-11-29T09:07:08.553Z,7.62
2022-11-29T09:08:07.559Z,7.63
2022-11-29T09:09:07.544Z,7.63
2022-11-29T09:10:07.542Z,7.63
2022-11-29T09:11:07.500Z,7.63
2022-11-29T09:12:07.523Z,7.66
2022-11-29T09:13:08.432Z,7.63
2022-11-29T09:14:07.514Z,7.63
2022-11-29T09:15:07.466Z,7.66
2022-11-29T09:16:07.531Z,7.66
2022-11-29T09:17:07.462Z,7.63
2022-11-29T09:18:07.689Z,7.67
2022-11-29T09:19:08.851Z,7.71
2022-11-29T09:20:08.880Z,7.71
2022-11-29T09:21:07.371Z,7.74
2022-11-29T09:22:07.417Z,7.74
2022-11-29T09:23:07.369Z,7.75
2022-11-29T09:24:07.695Z,7.77
2022-11-29T09:25:07.336Z,7.78
2022-11-29T09:26:07.350Z,7.81
2022-11-29T09:27:07.591Z,7.81
2022-11-29T09:28:07.318Z,7.81
2022-11-29T09:29:07.627Z,7.72
2022-11-29T09:30:07.323Z,7.72
2022-11-29T09:31:07.282Z,7.71
2022-11-29T09:32:07.353Z,7.71
2022-11-29T09:33:07.256Z,7.72
2022-11-29T09:34:07.264Z,7.74
2022-11-29T09:35:07.231Z,7.74
2022-11-29T09:36:07.255Z,7.72
2022-11-29T09:37:07.254Z,7.67
2022-11-29T09:38:07.223Z,7.60
2022-11-29T09:39:07.295Z,7.58
2022-11-29T09:40:07.197Z,7.59
2022-11-29T09:41:07.157Z,7.62
2022-11-29T09:42:07.199Z,7.66
2022-11-29T09:43:07.136Z,7.67
2022-11-29T09:44:07.169Z,7.66
2022-11-29T09:45:07.111Z,7.62
2022-11-29T09:46:07.209Z,7.60
2022-11-29T09:47:07.344Z,7.55
2022-11-29T09:48:07.311Z,7.50
2022-11-29T09:49:07.079Z,7.47
2022-11-29T09:50:07.073Z,7.47
2022-11-29T09:51:07.046Z,7.50
2022-11-29T09:52:07.290Z,7.50
2022-11-29T09:53:07.039Z,7.50
2022-11-29T09:54:07.027Z,7.52
2022-11-29T09:55:07.014Z,7.52
2022-11-29T09:56:07.146Z,7.56
2022-11-29T09:57:10.617Z,7.58
2022-11-29T09:58:07.001Z,7.62
2022-11-29T09:59:06.949Z,7.63
2022-11-29T10:00:07.022Z,7.63
2022-11-29T10:01:07.023Z,7.66
2022-11-29T10:02:06.996Z,7.62
2022-11-29T10:03:06.936Z,7.58
2022-11-29T10:04:06.925Z,7.53
2022-11-29T10:05:06.902Z,7.50
2022-11-29T10:06:06.902Z,7.45
2022-11-29T10:07:06.875Z,7.45
2022-11-29T10:08:06.893Z,7.45
2022-11-29T10:09:06.844Z,7.47
2022-11-29T10:10:06.963Z,7.44
2022-11-29T10:11:07.810Z,7.49
2022-11-29T10:12:06.804Z,7.49
2022-11-29T10:13:07.336Z,7.53
2022-11-29T10:14:06.803Z,7.58
2022-11-29T10:15:06.800Z,7.62
2022-11-29T10:16:06.923Z,7.66
2022-11-29T10:17:07.744Z,7.66
2022-11-29T10:18:07.534Z,7.69
2022-11-29T10:19:07.010Z,7.72
2022-11-29T10:20:07.665Z,7.75
2022-11-29T10:21:08.188Z,7.75
2022-11-29T10:22:07.312Z,7.78
2022-11-29T10:23:08.181Z,7.82
2022-11-29T10:24:08.124Z,7.82
2022-11-29T10:25:07.323Z,7.79
2022-11-29T10:26:07.285Z,7.78
2022-11-29T10:27:06.672Z,7.81
2022-11-29T10:28:06.646Z,7.81
2022-11-29T10:29:06.651Z,7.82
2022-11-29T10:30:06.599Z,7.79
2022-11-29T10:31:06.662Z,7.79
2022-11-29T10:32:10.253Z,7.79
2022-11-29T10:33:07.559Z,7.79
2022-11-29T10:34:06.616Z,7.82
2022-11-29T10:35:06.575Z,7.84
2022-11-29T10:36:06.750Z,7.85
2022-11-29T10:37:07.031Z,7.81
2022-11-29T10:38:29.605Z,7.79
2022-11-29T10:39:13.005Z,7.77
2022-11-29T10:40:07.846Z,7.72
2022-11-29T10:41:06.506Z,7.69
2022-11-29T10:42:07.266Z,7.69
2022-11-29T10:43:06.734Z,7.69
2022-11-29T10:44:06.449Z,7.72
2022-11-29T10:45:06.488Z,7.74
2022-11-29T10:46:06.503Z,7.71
2022-11-29T10:47:10.661Z,7.69
2022-11-29T10:48:06.418Z,7.69
2022-11-29T10:49:06.433Z,7.63
2022-11-29T10:50:06.405Z,7.66
2022-11-29T10:51:06.404Z,7.63
2022-11-29T10:52:07.817Z,7.66
2022-11-29T10:53:06.415Z,7.62
2022-11-29T10:54:06.344Z,7.62
2022-11-29T10:55:06.440Z,7.59
2022-11-29T10:56:06.319Z,7.59
2022-11-29T10:57:06.329Z,7.60
2022-11-29T10:58:06.288Z,7.59
2022-11-29T10:59:06.409Z,7.59
2022-11-29T11:00:06.313Z,7.58
2022-11-29T11:01:07.330Z,7.60
2022-11-29T11:02:06.272Z,7.62
2022-11-29T11:03:06.258Z,7.66
2022-11-29T11:04:06.234Z,7.69
2022-11-29T11:05:07.196Z,7.72
2022-11-29T11:06:06.208Z,7.75
2022-11-29T11:07:06.209Z,7.79
2022-11-29T11:08:06.184Z,7.81
2022-11-29T11:09:07.139Z,7.82
2022-11-29T11:10:06.183Z,7.84
2022-11-29T11:11:06.163Z,7.85
2022-11-29T11:12:06.142Z,7.84
2022-11-29T11:13:06.167Z,7.87
2022-11-29T11:14:08.070Z,7.87
2022-11-29T11:15:06.139Z,7.87
2022-11-29T11:16:06.097Z,7.87
2022-11-29T11:17:06.157Z,7.85
2022-11-29T11:18:06.069Z,7.85
2022-11-29T11:19:06.089Z,7.82
2022-11-29T11:20:06.067Z,7.79
2022-11-29T11:21:06.062Z,7.81
2022-11-29T11:22:06.040Z,7.84
2022-11-29T11:23:07.523Z,7.89
2022-11-29T11:24:06.966Z,7.89
2022-11-29T11:25:06.378Z,7.89
2022-11-29T11:26:06.430Z,7.90
2022-11-29T11:27:06.513Z,7.89
2022-11-29T11:28:05.958Z,7.89
2022-11-29T11:29:05.983Z,7.92
2022-11-29T11:30:06.558Z,7.92
2022-11-29T11:31:06.240Z,7.93
2022-11-29T11:32:06.446Z,7.94
2022-11-29T11:33:05.948Z,7.94
2022-11-29T11:34:05.900Z,7.92
2022-11-29T11:35:05.910Z,7.93
2022-11-29T11:36:05.853Z,7.93
2022-11-29T11:37:05.880Z,7.94
2022-11-29T11:38:05.854Z,7.93
2022-11-29T11:39:05.897Z,7.96
2022-11-29T11:40:05.831Z,7.94
2022-11-29T11:41:05.939Z,7.97
2022-11-29T11:42:05.806Z,7.96
2022-11-29T11:43:07.266Z,7.96
2022-11-29T11:44:14.989Z,7.96
2022-11-29T11:45:06.788Z,7.97
2022-11-29T11:46:08.106Z,7.99
2022-11-29T11:47:05.955Z,7.99
2022-11-29T11:48:06.708Z,8.02
2022-11-29T11:49:06.699Z,8.03
2022-11-29T11:50:05.698Z,8.04
2022-11-29T11:51:05.719Z,8.03
2022-11-29T11:52:05.683Z,8.03
2022-11-29T11:53:05.961Z,8.02
2022-11-29T11:54:05.691Z,8.00
2022-11-29T11:55:05.687Z,8.02
2022-11-29T11:56:05.959Z,8.00
2022-11-29T11:57:05.929Z,8.03
2022-11-29T11:58:10.237Z,8.02
2022-11-29T11:59:05.975Z,8.02
2022-11-29T12:00:07.311Z,8.03
2022-11-29T12:01:06.486Z,8.03
2022-11-29T12:02:05.996Z,8.03
2022-11-29T12:03:05.660Z,8.03
2022-11-29T12:04:06.006Z,8.04
2022-11-29T12:05:05.590Z,8.07
2022-11-29T12:06:06.046Z,8.08
2022-11-29T12:07:06.015Z,8.10
2022-11-29T12:08:08.096Z,8.08
2022-11-29T12:09:05.535Z,8.04
2022-11-29T12:10:05.475Z,8.04
2022-11-29T12:11:07.428Z,8.07
2022-11-29T12:12:05.464Z,8.04
2022-11-29T12:13:05.476Z,8.04
2022-11-29T12:14:05.429Z,8.03
2022-11-29T12:15:05.475Z,8.03
2022-11-29T12:16:05.442Z,8.03
2022-11-29T12:17:05.535Z,8.00
2022-11-29T12:18:05.394Z,7.93
2022-11-29T12:19:05.412Z,7.87
2022-11-29T12:20:05.383Z,7.85
2022-11-29T12:21:05.454Z,7.82
2022-11-29T12:22:05.353Z,7.85
2022-11-29T12:23:05.352Z,7.84
2022-11-29T12:24:06.282Z,7.84
2022-11-29T12:25:05.343Z,7.84
2022-11-29T12:26:05.357Z,7.81
2022-11-29T12:27:05.363Z,7.78
2022-11-29T12:28:05.275Z,7.77
2022-11-29T12:29:05.286Z,7.72
2022-11-29T12:30:05.268Z,7.72
2022-11-29T12:31:05.325Z,7.75
2022-11-29T12:32:05.242Z,7.77
2022-11-29T12:33:05.247Z,7.78
2022-11-29T12:34:05.221Z,7.82
2022-11-29T12:35:05.219Z,7.84
2022-11-29T12:36:05.196Z,7.89
2022-11-29T12:37:05.208Z,7.92
2022-11-29T12:38:05.163Z,7.94
2022-11-29T12:39:05.174Z,7.94
2022-11-29T12:40:05.153Z,7.96
2022-11-29T12:41:05.154Z,7.94
2022-11-29T12:42:05.133Z,7.96
2022-11-29T12:43:05.130Z,8.00
2022-11-29T12:44:05.093Z,8.02
2022-11-29T12:45:05.126Z,8.02
2022-11-29T12:46:05.135Z,8.04
2022-11-29T12:47:34.764Z,8.10
2022-11-29T12:48:06.045Z,8.11
2022-11-29T12:49:05.054Z,8.11
2022-11-29T12:50:05.124Z,8.15
2022-11-29T12:51:05.038Z,8.15
2022-11-29T12:52:05.008Z,8.15
2022-11-29T12:53:05.046Z,8.17
2022-11-29T12:54:04.983Z,8.17
2022-11-29T12:55:05.017Z,8.18
2022-11-29T12:56:04.969Z,8.20
2022-11-29T12:57:04.996Z,8.21
2022-11-29T12:58:04.927Z,8.21
2022-11-29T12:59:04.958Z,8.21
2022-11-29T13:00:04.919Z,8.20
2022-11-29T13:01:04.943Z,8.20
2022-11-29T13:02:04.928Z,8.21
2022-11-29T13:03:04.963Z,8.20
2022-11-29T13:04:04.861Z,8.21
2022-11-29T13:05:04.876Z,8.21
2022-11-29T13:06:04.847Z,8.21
2022-11-29T13:07:04.881Z,8.20
2022-11-29T13:08:04.810Z,8.17
2022-11-29T13:09:04.846Z,8.18
2022-11-29T13:10:04.885Z,8.20
2022-11-29T13:11:04.833Z,8.20
2022-11-29T13:12:04.773Z,8.21
2022-11-29T13:13:04.795Z,8.22
2022-11-29T13:14:34.813Z,8.21
2022-11-29T13:15:05.777Z,8.22
2022-11-29T13:16:04.789Z,8.25
2022-11-29T13:17:04.780Z,8.28
2022-11-29T13:18:04.704Z,8.25
2022-11-29T13:19:04.734Z,8.26